Time;durP1;ratioP1;P1;durP2;ratioP2;P2;SDS_P1;SDS_P2;PMS_P1;PMS_P2;Temp;Humidity;BMP_temperature;BMP_pressure;BME280_temperature;BME280_humidity;BME280_pressure;Samples;Min_cycle;Max_cycle;Signal;HPM_P1;HPM_P2
2021/06/08 00:00:49;;;;;;;19.35;11.20;;;;;;;18.24;58.96;100525.33;125866;1093;22847;-59
2021/06/08 00:03:24;;;;;;;23.35;10.70;;;;;;;18.17;59.18;100525.89;125840;1093;25813;-61
2021/06/08 00:05:57;;;;;;;25.63;11.30;;;;;;;18.06;59.85;100528.81;125859;1093;22781;-60
2021/06/08 00:08:28;;;;;;;21.35;11.55;;;;;;;17.97;59.95;100520.64;125968;1093;22781;-59
2021/06/08 00:10:59;;;;;;;19.95;10.80;;;;;;;17.89;60.25;100530.19;125891;1093;22899;-60
2021/06/08 00:13:30;;;;;;;22.75;11.90;;;;;;;17.79;60.72;100530.49;125856;1093;27166;-58
2021/06/08 00:16:03;;;;;;;20.00;11.15;;;;;;;17.69;60.62;100526.45;125888;1092;22751;-60
2021/06/08 00:18:34;;;;;;;19.80;11.15;;;;;;;17.66;60.87;100523.91;125913;1093;22781;-59
2021/06/08 00:21:06;;;;;;;20.97;11.43;;;;;;;17.61;61.18;100525.47;125897;1093;24561;-61
2021/06/08 00:23:37;;;;;;;20.50;10.50;;;;;;;17.57;60.84;100519.33;126107;1093;22831;-58
2021/06/08 00:26:10;;;;;;;25.15;11.30;;;;;;;17.55;60.95;100538.06;125870;1093;22787;-61
2021/06/08 00:28:43;;;;;;;21.45;11.00;;;;;;;17.48;60.77;100535.78;125892;1093;23019;-61
2021/06/08 00:31:13;;;;;;;20.95;11.25;;;;;;;17.43;61.39;100528.09;125890;1093;22816;-58
2021/06/08 00:33:46;;;;;;;19.30;11.30;;;;;;;17.37;61.20;100532.98;125876;1093;22839;-58
2021/06/08 00:36:17;;;;;;;20.35;10.85;;;;;;;17.33;61.47;100535.31;125967;1093;22745;-60
2021/06/08 00:38:48;;;;;;;22.20;11.15;;;;;;;17.29;61.36;100526.36;125878;1093;22816;-60
2021/06/08 00:41:30;;;;;;;21.75;11.05;;;;;;;17.25;60.90;100523.81;125827;1093;28475;-61
2021/06/08 00:44:05;;;;;;;20.00;11.20;;;;;;;17.23;61.18;100519.97;125855;1092;24499;-60
2021/06/08 00:46:36;;;;;;;22.70;11.85;;;;;;;17.22;61.18;100524.06;125972;1093;22774;-60
2021/06/08 00:49:07;;;;;;;18.40;10.60;;;;;;;17.19;61.10;100522.29;125866;1093;22781;-60
2021/06/08 00:51:40;;;;;;;20.70;11.90;;;;;;;17.19;61.27;100522.29;125804;1093;22750;-59
2021/06/08 00:54:11;;;;;;;24.20;12.50;;;;;;;17.13;61.31;100527.96;125934;1093;22790;-58
2021/06/08 00:56:46;;;;;;;21.75;13.10;;;;;;;17.05;61.64;100524.11;125975;1093;22785;-60
2021/06/08 00:59:17;;;;;;;22.60;13.70;;;;;;;16.90;62.50;100527.22;125880;1093;22790;-60
2021/06/08 01:01:48;;;;;;;25.95;13.00;;;;;;;16.80;62.77;100525.22;125859;1093;22788;-58
2021/06/08 01:04:19;;;;;;;22.85;12.75;;;;;;;16.73;62.50;100522.91;125886;1092;22797;-60
2021/06/08 01:06:51;;;;;;;21.70;12.80;;;;;;;16.72;62.37;100527.00;125845;1093;22848;-59
2021/06/08 01:09:21;;;;;;;20.95;12.00;;;;;;;16.65;62.71;100522.67;125856;1093;22845;-62
2021/06/08 01:11:53;;;;;;;22.75;12.65;;;;;;;16.63;62.84;100518.83;125870;1093;22795;-59
2021/06/08 01:14:25;;;;;;;22.75;12.70;;;;;;;16.58;63.02;100523.19;126036;1093;22767;-60
2021/06/08 01:16:56;;;;;;;22.30;12.15;;;;;;;16.51;62.89;100520.88;126029;1092;22764;-60
2021/06/08 01:19:28;;;;;;;21.05;13.10;;;;;;;16.48;63.21;100519.06;125922;1092;22800;-58
2021/06/08 01:21:59;;;;;;;23.35;13.95;;;;;;;16.44;63.13;100524.19;126063;1093;22794;-61
2021/06/08 01:24:31;;;;;;;20.85;12.50;;;;;;;16.44;63.18;100524.19;125883;1093;26258;-61
2021/06/08 01:27:04;;;;;;;20.50;11.95;;;;;;;16.39;63.10;100516.50;125844;1093;26952;-60
2021/06/08 01:29:35;;;;;;;20.15;11.25;;;;;;;16.36;63.19;100517.54;126002;1093;22884;-60
2021/06/08 01:32:25;;;;;;;20.15;13.05;;;;;;;16.33;63.23;100512.91;125935;1093;24556;-60
2021/06/08 01:34:58;;;;;;;22.33;12.73;;;;;;;16.30;63.29;100507.55;125906;1093;27265;-59
2021/06/08 01:37:30;;;;;;;22.43;12.53;;;;;;;16.22;63.26;100507.30;125893;1093;23047;-60
2021/06/08 01:40:01;;;;;;;21.40;12.35;;;;;;;16.21;63.19;100511.38;126063;1093;26219;-58
2021/06/08 01:42:32;;;;;;;24.85;14.00;;;;;;;16.19;63.89;100508.31;125882;1093;22845;-61
2021/06/08 01:45:04;;;;;;;23.75;13.30;;;;;;;16.11;63.98;100513.69;125873;1093;25954;-60
2021/06/08 01:47:35;;;;;;;22.67;14.00;;;;;;;16.04;64.22;100504.95;126048;1093;22764;-60
2021/06/08 01:50:09;;;;;;;20.73;13.10;;;;;;;15.98;64.30;100512.63;125864;1093;26226;-60
2021/06/08 01:52:48;;;;;;;23.00;12.60;;;;;;;15.97;63.97;100520.30;126123;1093;22771;-60
2021/06/08 01:55:22;;;;;;;22.10;13.25;;;;;;;15.94;63.99;100515.71;125981;1093;24490;-60
2021/06/08 01:57:56;;;;;;;23.70;13.40;;;;;;;15.93;64.65;100519.05;125760;1093;22784;-60
2021/06/08 02:00:35;;;;;;;25.80;15.00;;;;;;;15.88;64.93;100529.02;125811;1093;22800;-59
2021/06/08 02:03:16;;;;;;;25.50;13.68;;;;;;;15.76;66.44;100533.08;125792;1093;22789;-61
2021/06/08 02:05:52;;;;;;;25.80;13.80;;;;;;;15.67;66.04;100524.08;125833;1093;22808;-59
2021/06/08 02:08:32;;;;;;;21.53;12.93;;;;;;;15.65;65.97;100533.05;125927;1092;22804;-59
2021/06/08 02:11:11;;;;;;;28.98;14.75;;;;;;;15.63;66.74;100524.34;125813;1093;24564;-60
2021/06/08 02:13:49;;;;;;;25.85;13.95;;;;;;;15.59;67.30;100529.44;125912;1093;26054;-61
2021/06/08 02:16:23;;;;;;;24.10;13.00;;;;;;;15.56;66.65;100529.70;125873;1093;22855;-60
2021/06/08 02:18:54;;;;;;;23.70;13.50;;;;;;;15.53;67.38;100534.28;125970;1093;22761;-59
2021/06/08 02:21:35;;;;;;;23.83;13.47;;;;;;;15.52;67.11;100537.61;125872;1093;25934;-60
2021/06/08 02:24:12;;;;;;;23.85;12.70;;;;;;;15.51;67.05;100527.63;125885;1093;27322;-58
2021/06/08 02:26:45;;;;;;;24.50;14.30;;;;;;;15.47;66.73;100522.24;126052;1093;22855;-60
2021/06/08 02:29:18;;;;;;;25.15;13.10;;;;;;;15.45;66.63;100524.80;126062;1093;23465;-61
2021/06/08 02:31:51;;;;;;;21.30;13.30;;;;;;;15.46;67.12;100529.13;125947;1091;24644;-60
2021/06/08 02:34:22;;;;;;;24.87;12.30;;;;;;;15.45;67.16;100538.09;125980;1091;25442;-62
2021/06/08 02:36:54;;;;;;;25.80;13.30;;;;;;;15.36;67.04;100527.78;125738;1092;26815;-60
2021/06/08 02:39:27;;;;;;;24.70;12.25;;;;;;;15.34;66.66;100528.30;125812;1093;27590;-59
2021/06/08 02:41:59;;;;;;;22.75;11.75;;;;;;;15.31;67.03;100532.11;125864;1093;24501;-60
2021/06/08 02:44:31;;;;;;;23.20;11.90;;;;;;;15.25;67.46;100536.17;126155;1093;22771;-60
2021/06/08 02:47:02;;;;;;;22.65;12.55;;;;;;;15.23;67.51;100535.90;125941;1093;22764;-60
2021/06/08 02:49:34;;;;;;;20.77;12.27;;;;;;;15.19;66.96;100533.34;125876;1093;22925;-60
2021/06/08 02:52:08;;;;;;;22.27;12.20;;;;;;;15.19;67.05;100538.96;125922;1093;26502;-59
2021/06/08 02:54:39;;;;;;;21.80;12.30;;;;;;;15.15;66.99;100541.24;125919;1093;22897;-60
2021/06/08 02:57:12;;;;;;;21.05;11.65;;;;;;;15.17;66.77;100549.17;125994;1093;27243;-60
2021/06/08 02:59:46;;;;;;;19.40;10.70;;;;;;;15.14;66.84;100541.75;126546;1093;22618;-55
2021/06/08 03:02:19;;;;;;;20.70;10.60;;;;;;;15.13;67.06;100546.60;125977;1092;22751;-58
2021/06/08 03:04:55;;;;;;;23.25;11.30;;;;;;;15.11;66.55;100546.34;125823;1092;22751;-58
2021/06/08 03:07:28;;;;;;;19.45;11.90;;;;;;;15.12;66.49;100547.89;125935;1093;22842;-58
2021/06/08 03:10:05;;;;;;;22.05;11.75;;;;;;;15.15;66.61;100552.48;126026;1093;22797;-56
2021/06/08 03:12:39;;;;;;;21.97;12.03;;;;;;;15.17;66.74;100549.17;126040;1092;22780;-60
2021/06/08 03:15:14;;;;;;;20.00;11.50;;;;;;;15.11;66.45;100551.96;126002;1093;24591;-57
2021/06/08 03:17:46;;;;;;;20.20;11.20;;;;;;;15.10;66.85;100555.28;126212;1093;25855;-57
2021/06/08 03:20:21;;;;;;;19.50;10.80;;;;;;;15.09;66.35;100562.16;125883;1093;22778;-57
2021/06/08 03:22:56;;;;;;;22.50;12.80;;;;;;;15.10;66.55;100570.13;126070;1093;22969;-58
2021/06/08 03:25:28;;;;;;;20.90;10.95;;;;;;;15.10;66.97;100569.34;126100;1093;27351;-57
2021/06/08 03:28:00;;;;;;;19.40;11.05;;;;;;;15.08;66.97;100566.27;125931;1093;25400;-62
2021/06/08 03:30:33;;;;;;;22.55;12.00;;;;;;;15.04;66.98;100572.09;126164;1093;22773;-60
2021/06/08 03:33:06;;;;;;;22.20;12.40;;;;;;;15.01;67.23;100569.53;126226;1093;22723;-61
2021/06/08 03:35:47;;;;;;;22.40;11.67;;;;;;;15.00;67.23;100579.25;126192;1093;25743;-57
2021/06/08 03:38:21;;;;;;;20.47;12.27;;;;;;;14.99;67.51;100578.48;126421;1093;26327;-59
2021/06/08 03:40:54;;;;;;;25.10;13.05;;;;;;;15.00;67.58;100582.06;126571;1092;22753;-57
2021/06/08 03:43:27;;;;;;;26.63;14.00;;;;;;;14.97;67.83;100575.40;126554;1093;22754;-58
2021/06/08 03:45:58;;;;;;;24.30;14.60;;;;;;;14.99;67.85;100572.08;126421;1093;22747;-58
2021/06/08 03:48:30;;;;;;;24.88;14.10;;;;;;;15.01;67.49;100577.97;126563;1093;22697;-56
2021/06/08 03:51:02;;;;;;;27.85;13.55;;;;;;;15.05;67.85;100573.66;126362;1091;24205;-59
2021/06/08 03:53:33;;;;;;;25.15;14.95;;;;;;;15.07;68.31;100573.92;126506;1091;22780;-59
2021/06/08 03:56:07;;;;;;;25.03;15.23;;;;;;;15.10;68.15;100570.13;126331;1092;22754;-56
2021/06/08 03:58:47;;;;;;;27.40;14.90;;;;;;;15.13;68.38;100565.51;126436;1093;24245;-59
2021/06/08 04:01:19;;;;;;;29.20;15.40;;;;;;;15.18;67.67;100570.41;126287;1093;22784;-59
2021/06/08 04:03:52;;;;;;;27.70;16.85;;;;;;;15.22;67.94;100571.72;126557;1093;22765;-60
2021/06/08 04:06:24;;;;;;;26.70;13.95;;;;;;;15.28;67.61;100575.33;126484;1092;22775;-57
2021/06/08 04:08:57;;;;;;;28.65;14.95;;;;;;;15.34;68.04;100578.94;126472;1092;22834;-58
2021/06/08 04:11:28;;;;;;;25.30;15.00;;;;;;;15.41;68.14;100583.32;126465;1093;22732;-59
2021/06/08 04:14:01;;;;;;;26.65;15.30;;;;;;;15.46;68.15;100579.78;126604;1093;22908;-58
2021/06/08 04:16:34;;;;;;;23.25;13.50;;;;;;;15.54;68.30;100582.90;126359;1093;27118;-66
2021/06/08 04:19:08;;;;;;;24.90;11.75;;;;;;;15.58;67.81;100577.80;126035;1093;22781;-65
2021/06/08 04:21:42;;;;;;;21.70;12.15;;;;;;;15.64;68.28;100584.99;126259;1093;27328;-58
2021/06/08 04:24:14;;;;;;;22.80;11.97;;;;;;;15.69;68.05;100583.45;126511;1093;22934;-58
2021/06/08 04:26:45;;;;;;;23.63;12.10;;;;;;;15.75;68.38;100582.20;126646;1092;23484;-58
2021/06/08 04:42:19;;;;;;;17.97;7.93;;;;;;;16.16;68.03;100585.37;126110;1093;26229;-60
2021/06/08 04:44:53;;;;;;;17.05;7.55;;;;;;;16.23;67.73;100587.70;125922;1093;22794;-61
2021/06/08 04:47:24;;;;;;;17.50;7.80;;;;;;;16.31;67.90;100594.36;125871;1092;22790;-57
2021/06/08 04:49:55;;;;;;;19.53;7.53;;;;;;;16.40;67.91;100594.13;125805;1093;22911;-57
2021/06/08 04:52:27;;;;;;;15.23;6.93;;;;;;;16.48;67.31;100597.97;125618;1091;22835;-57
2021/06/08 04:54:58;;;;;;;16.63;6.93;;;;;;;16.57;67.03;100591.35;125569;1093;24461;-57
2021/06/08 04:57:30;;;;;;;15.25;6.60;;;;;;;16.65;66.61;100598.79;125696;1093;22784;-57
2021/06/08 05:00:05;;;;;;;14.40;6.37;;;;;;;16.73;66.36;100604.67;125727;1093;26248;-57
2021/06/08 05:02:43;;;;;;;14.60;6.30;;;;;;;16.79;66.30;100599.80;125649;1093;22789;-57
2021/06/08 05:05:17;;;;;;;14.05;6.10;;;;;;;16.86;65.58;100600.04;125770;1093;25568;-58
2021/06/08 05:07:54;;;;;;;16.90;6.83;;;;;;;16.95;65.80;100605.42;125745;1093;22785;-58
2021/06/08 05:10:28;;;;;;;15.10;6.05;;;;;;;17.06;65.35;100595.41;125713;1093;22764;-55
2021/06/08 05:13:01;;;;;;;11.95;4.95;;;;;;;17.17;65.17;100598.98;125831;1092;22780;-56
2021/06/08 05:15:33;;;;;;;14.95;4.90;;;;;;;17.30;64.37;100601.27;125850;1093;22757;-58
2021/06/08 05:18:06;;;;;;;15.20;5.50;;;;;;;17.41;63.83;100604.82;125842;1093;22762;-57
2021/06/08 05:20:43;;;;;;;18.45;5.00;;;;;;;17.51;62.85;100603.27;126081;1093;22757;-57
2021/06/08 05:23:17;;;;;;;19.57;5.37;;;;;;;17.63;62.87;100607.59;125862;1093;22855;-57
2021/06/08 05:25:52;;;;;;;11.40;4.20;;;;;;;17.77;62.86;100617.05;125958;1093;22764;-63
2021/06/08 05:28:26;;;;;;;11.97;4.53;;;;;;;17.89;62.67;100609.28;126002;1093;24542;-56
2021/06/08 05:30:58;;;;;;;11.40;4.90;;;;;;;18.02;62.36;100610.22;125940;1092;22787;-58
2021/06/08 05:33:29;;;;;;;9.75;3.65;;;;;;;18.11;61.78;100621.23;128352;1093;101237;-78
2021/06/08 05:38:08;;;;;;;14.05;5.25;;;;;;;18.14;61.96;100620.20;126131;1093;22768;-61
2021/06/08 05:40:41;;;;;;;12.15;4.80;;;;;;;18.12;61.36;100619.17;127587;1093;22787;-61
2021/06/08 05:43:12;;;;;;;12.83;4.33;;;;;;;18.08;59.78;100613.03;127405;1092;22826;-61
2021/06/08 05:45:45;;;;;;;12.85;4.60;;;;;;;18.09;60.06;100623.81;125927;1093;22957;-61
2021/06/08 05:48:19;;;;;;;9.40;4.00;;;;;;;18.10;60.09;100619.70;126077;1093;22761;-60
2021/06/08 05:50:53;;;;;;;12.30;5.00;;;;;;;18.11;59.90;100626.88;126066;1093;25793;-61
2021/06/08 05:53:24;;;;;;;14.10;4.55;;;;;;;18.08;59.56;100619.46;126297;1093;22791;-62
2021/06/08 05:55:57;;;;;;;15.00;5.80;;;;;;;18.04;59.61;100624.63;126108;1093;22938;-62
2021/06/08 05:58:30;;;;;;;10.90;4.40;;;;;;;18.01;59.61;100620.00;125990;1093;22787;-63
2021/06/08 06:01:04;;;;;;;12.57;4.50;;;;;;;18.06;59.74;100624.87;126106;1093;22753;-62
2021/06/08 06:03:36;;;;;;;10.15;4.00;;;;;;;18.14;59.95;100625.84;126001;1092;24418;-62
2021/06/08 06:06:08;;;;;;;12.30;5.20;;;;;;;18.23;58.88;100624.77;125884;1093;23223;-64
2021/06/08 06:08:40;;;;;;;13.00;4.13;;;;;;;18.36;58.75;100630.58;125981;1093;24561;-61
2021/06/08 06:11:13;;;;;;;11.95;4.75;;;;;;;18.47;58.80;100625.67;125921;1093;24502;-62
2021/06/08 06:13:48;;;;;;;12.87;5.10;;;;;;;18.60;57.74;100629.95;125983;1093;22828;-62
2021/06/08 06:16:20;;;;;;;11.65;4.55;;;;;;;18.60;57.14;100627.12;125952;1093;22780;-61
2021/06/08 06:18:53;;;;;;;13.20;5.20;;;;;;;18.62;56.99;100627.36;125920;1093;22795;-62
2021/06/08 06:21:25;;;;;;;11.10;4.90;;;;;;;18.58;56.93;100627.63;125888;1093;22774;-62
2021/06/08 06:23:57;;;;;;;11.60;4.70;;;;;;;18.61;57.41;100634.30;125909;1093;22776;-62
2021/06/08 06:26:28;;;;;;;12.60;5.10;;;;;;;18.63;57.13;100631.70;125739;1093;26532;-61
2021/06/08 06:29:01;;;;;;;13.25;4.40;;;;;;;18.68;57.15;100628.86;125990;1093;22835;-62
2021/06/08 06:31:33;;;;;;;10.00;4.80;;;;;;;18.74;56.59;100638.06;125832;1093;24448;-62
2021/06/08 06:34:04;;;;;;;11.05;4.85;;;;;;;18.81;57.03;100637.47;126055;1093;26324;-61
2021/06/08 06:36:37;;;;;;;12.83;4.93;;;;;;;18.93;56.55;100640.99;126052;1093;24484;-62
2021/06/08 06:39:14;;;;;;;13.27;5.00;;;;;;;19.04;57.10;100635.98;125878;1093;26732;-62
2021/06/08 06:41:50;;;;;;;17.20;4.15;;;;;;;19.13;57.02;100630.00;125808;1093;25810;-62
2021/06/08 06:44:23;;;;;;;13.40;4.75;;;;;;;19.24;57.13;100634.78;125870;1093;22770;-62
2021/06/08 06:46:58;;;;;;;13.25;5.80;;;;;;;19.35;56.93;100629.02;125865;1093;22787;-62
2021/06/08 06:49:29;;;;;;;13.90;4.85;;;;;;;19.44;56.31;100637.17;125939;1093;22820;-62
2021/06/08 06:52:02;;;;;;;10.85;4.55;;;;;;;19.53;56.78;100633.99;125862;1093;22890;-62
2021/06/08 06:54:33;;;;;;;13.25;4.40;;;;;;;19.60;55.58;100624.88;126179;1092;22886;-62
2021/06/08 06:57:07;;;;;;;12.50;4.23;;;;;;;19.67;55.40;100632.02;125943;1092;22861;-60
2021/06/08 06:59:39;;;;;;;11.17;4.50;;;;;;;19.72;55.01;100629.11;125970;1092;22769;-62
2021/06/08 07:02:13;;;;;;;13.90;4.25;;;;;;;19.82;54.94;100626.70;125836;1093;22861;-63
2021/06/08 07:04:45;;;;;;;19.97;4.50;;;;;;;19.90;54.94;100644.62;125981;1093;22848;-62
2021/06/08 07:07:21;;;;;;;12.03;5.30;;;;;;;19.99;54.46;100641.39;125911;1093;22851;-63
2021/06/08 07:09:54;;;;;;;15.30;5.70;;;;;;;20.06;54.79;100637.96;125897;1093;22784;-62
2021/06/08 07:12:26;;;;;;;12.90;5.20;;;;;;;20.11;53.99;100637.13;126043;1093;22848;-62
2021/06/08 07:14:58;;;;;;;10.70;4.80;;;;;;;20.13;54.57;100638.11;125986;1093;22878;-63
2021/06/08 07:17:30;;;;;;;15.00;5.85;;;;;;;20.25;54.15;100640.83;125897;1093;22826;-63
2021/06/08 07:20:04;;;;;;;10.77;5.63;;;;;;;20.27;53.87;100638.22;125930;1093;22937;-62
2021/06/08 07:22:37;;;;;;;14.35;6.20;;;;;;;20.31;53.72;100639.45;125944;1093;22784;-63
2021/06/08 07:25:11;;;;;;;13.27;6.27;;;;;;;20.38;54.28;100643.74;125890;1093;22813;-63
2021/06/08 07:27:42;;;;;;;18.17;7.13;;;;;;;20.51;54.29;100636.05;126150;1093;25902;-63
2021/06/08 07:30:17;;;;;;;13.70;6.35;;;;;;;20.64;54.10;100635.34;125892;1093;27348;-64
2021/06/08 07:32:58;;;;;;;14.43;7.03;;;;;;;20.66;53.49;100632.73;126077;1093;22857;-63
2021/06/08 07:35:32;;;;;;;16.18;6.65;;;;;;;20.72;53.53;100633.41;125897;1093;25813;-63
2021/06/08 07:38:10;;;;;;;12.27;5.63;;;;;;;20.79;54.05;100632.78;125604;1092;27157;-64
2021/06/08 07:40:48;;;;;;;17.50;7.30;;;;;;;20.91;53.44;100639.80;125666;1093;28332;-63
2021/06/08 07:43:25;;;;;;;14.87;6.20;;;;;;;20.97;53.25;100637.63;125953;1093;22803;-64
2021/06/08 07:46:00;;;;;;;12.90;6.10;;;;;;;21.06;53.24;100640.09;125809;1093;22791;-63
2021/06/08 07:48:32;;;;;;;14.78;6.15;;;;;;;21.13;53.24;100639.44;125658;1093;22870;-63
2021/06/08 07:51:05;;;;;;;14.28;6.60;;;;;;;21.25;53.17;100635.09;125868;1093;22770;-63
2021/06/08 07:53:36;;;;;;;17.13;7.25;;;;;;;21.38;53.03;100635.11;125838;1092;22837;-64
2021/06/08 07:56:08;;;;;;;22.25;6.73;;;;;;;21.46;52.48;100638.83;125714;1093;22770;-63
2021/06/08 07:58:40;;;;;;;16.17;6.70;;;;;;;21.53;52.67;100632.50;125670;1093;22954;-63
2021/06/08 08:01:14;;;;;;;18.17;7.70;;;;;;;21.63;52.08;100636.43;125737;1092;25819;-63
2021/06/08 08:03:46;;;;;;;15.90;5.83;;;;;;;21.71;52.72;100636.53;125755;1093;22770;-63
2021/06/08 08:06:19;;;;;;;16.03;7.45;;;;;;;21.80;52.18;100636.09;125743;1093;27157;-63
2021/06/08 08:08:53;;;;;;;18.20;8.67;;;;;;;21.89;51.30;100632.08;125754;1093;22770;-63
2021/06/08 08:11:27;;;;;;;20.20;8.10;;;;;;;21.94;52.28;100637.63;125830;1093;22790;-63
2021/06/08 08:14:03;;;;;;;14.70;7.63;;;;;;;22.07;51.97;100639.69;126092;1093;25486;-63
2021/06/08 08:16:36;;;;;;;15.83;6.70;;;;;;;22.20;51.35;100636.83;125671;1092;22858;-63
2021/06/08 08:19:08;;;;;;;14.83;7.85;;;;;;;22.32;50.76;100635.26;125786;1093;27294;-64
2021/06/08 08:21:39;;;;;;;14.43;4.40;;;;;;;22.41;49.26;100641.23;125697;1093;27151;-64
2021/06/08 08:24:12;;;;;;;10.95;3.73;;;;;;;22.49;48.37;100641.33;125742;1093;26260;-61
2021/06/08 08:26:43;;;;;;;14.88;3.68;;;;;;;22.54;48.61;100640.42;125707;1093;22931;-63
2021/06/08 08:29:14;;;;;;;15.68;5.18;;;;;;;22.65;48.21;100645.12;125704;1093;23209;-62
2021/06/08 08:31:45;;;;;;;11.30;4.00;;;;;;;22.73;48.13;100652.42;125682;1093;27160;-62
2021/06/08 08:34:17;;;;;;;11.83;4.28;;;;;;;22.82;48.51;100646.26;125666;1093;22770;-62
2021/06/08 08:36:51;;;;;;;13.03;5.48;;;;;;;22.91;47.77;100642.91;125868;1093;27144;-62
2021/06/08 08:39:22;;;;;;;16.05;4.83;;;;;;;23.00;47.85;100641.66;125852;1092;23370;-62
2021/06/08 08:41:55;;;;;;;13.00;5.15;;;;;;;23.08;47.58;100645.33;125808;1093;24528;-63
2021/06/08 08:44:27;;;;;;;13.68;6.03;;;;;;;23.17;47.48;100648.44;125900;1093;22780;-62
2021/06/08 08:46:59;;;;;;;12.83;5.48;;;;;;;23.23;47.60;100645.47;125845;1093;25813;-62
2021/06/08 08:49:30;;;;;;;13.93;4.50;;;;;;;23.29;47.47;100641.16;125832;1093;22783;-61
2021/06/08 08:52:03;;;;;;;10.70;4.37;;;;;;;23.37;46.94;100649.77;125857;1093;29258;-63
2021/06/08 08:54:36;;;;;;;13.37;4.30;;;;;;;23.45;47.01;100649.81;126031;1093;22895;-63
2021/06/08 08:57:09;;;;;;;12.15;4.55;;;;;;;23.53;47.45;100642.84;125864;1093;22760;-62
2021/06/08 08:59:41;;;;;;;14.88;4.33;;;;;;;23.63;47.25;100645.97;126020;1093;24568;-62
2021/06/08 09:02:13;;;;;;;9.00;2.78;;;;;;;23.70;46.49;100637.45;126031;1093;22905;-62
2021/06/08 09:04:44;;;;;;;11.08;3.70;;;;;;;23.71;46.42;100633.27;126074;1093;22764;-62
2021/06/08 09:07:16;;;;;;;9.03;3.68;;;;;;;23.77;46.65;100644.53;125935;1093;22760;-62
2021/06/08 09:09:47;;;;;;;9.00;3.68;;;;;;;23.84;46.75;100640.94;125942;1093;22775;-62
2021/06/08 09:12:19;;;;;;;9.17;3.87;;;;;;;23.89;46.99;100640.80;125793;1093;22932;-62
2021/06/08 09:14:50;;;;;;;10.83;3.78;;;;;;;23.94;46.58;100633.41;126016;1093;25932;-62
2021/06/08 09:17:21;;;;;;;9.75;4.23;;;;;;;24.02;46.35;100639.91;125906;1093;22899;-62
2021/06/08 09:19:52;;;;;;;13.38;3.98;;;;;;;24.11;46.09;100639.39;126040;1093;22800;-62
2021/06/08 09:22:24;;;;;;;9.30;3.58;;;;;;;24.18;45.37;100644.37;125958;1093;25900;-62
2021/06/08 09:24:55;;;;;;;7.83;3.30;;;;;;;24.16;45.56;100637.70;126222;1093;22801;-63
2021/06/08 09:27:30;;;;;;;8.43;2.98;;;;;;;24.17;45.65;100644.94;126100;1093;25957;-61
2021/06/08 09:30:13;;;;;;;15.38;4.23;;;;;;;24.22;45.36;100641.91;126071;1093;25919;-63
2021/06/08 09:32:45;;;;;;;9.28;2.90;;;;;;;24.33;45.28;100635.10;126008;1093;22847;-62
2021/06/08 09:35:16;;;;;;;11.93;3.80;;;;;;;24.36;44.46;100642.52;125802;1092;25879;-63
2021/06/08 09:37:48;;;;;;;10.38;3.38;;;;;;;24.36;44.56;100634.72;125989;1092;22803;-63
2021/06/08 09:40:25;;;;;;;8.00;2.53;;;;;;;24.42;43.52;100629.60;125936;1092;22916;-63
2021/06/08 09:43:07;;;;;;;12.35;2.15;;;;;;;24.47;43.32;100639.32;125885;1093;26222;-64
2021/06/08 09:45:45;;;;;;;7.40;2.70;;;;;;;24.47;43.05;100639.32;125963;1093;22797;-63
2021/06/08 09:48:17;;;;;;;7.18;2.28;;;;;;;24.53;43.24;100631.34;125952;1093;22774;-64
2021/06/08 09:50:50;;;;;;;8.18;2.50;;;;;;;24.60;42.95;100624.90;126110;1092;25814;-62
2021/06/08 09:53:26;;;;;;;10.55;2.35;;;;;;;24.61;42.40;100632.89;125910;1093;26496;-62
2021/06/08 09:56:00;;;;;;;8.60;2.53;;;;;;;24.67;42.35;100624.13;126168;1093;22764;-62
2021/06/08 09:58:32;;;;;;;8.57;2.07;;;;;;;24.65;41.55;100638.98;126183;1093;24424;-62
2021/06/08 10:01:16;;;;;;;7.67;2.00;;;;;;;24.68;41.59;100625.67;125998;1093;22858;-62
2021/06/08 10:03:49;;;;;;;7.15;2.03;;;;;;;24.74;41.27;100629.91;125928;1093;22760;-62
2021/06/08 10:06:22;;;;;;;6.43;1.70;;;;;;;24.77;40.85;100625.13;126120;1093;22950;-63
2021/06/08 10:08:58;;;;;;;5.10;1.80;;;;;;;24.81;39.78;100623.42;126557;1093;22780;-62
2021/06/08 10:11:32;;;;;;;4.93;1.53;;;;;;;24.84;40.57;100621.53;125995;1093;24323;-62
2021/06/08 10:14:12;;;;;;;8.03;1.90;;;;;;;24.87;39.88;100614.69;125992;1093;22891;-62
2021/06/08 10:16:43;;;;;;;4.28;1.48;;;;;;;24.94;39.75;100621.71;125943;1092;22854;-62
2021/06/08 10:19:26;;;;;;;6.50;1.55;;;;;;;24.99;38.96;100617.91;126043;1093;22764;-62
2021/06/08 10:21:57;;;;;;;6.75;1.20;;;;;;;25.05;38.47;100619.25;125987;1093;22842;-62
2021/06/08 10:24:29;;;;;;;6.25;1.20;;;;;;;25.12;38.84;100612.76;125859;1093;22770;-61
2021/06/08 10:27:01;;;;;;;7.23;1.50;;;;;;;25.17;38.41;100613.91;125939;1093;22860;-62
2021/06/08 10:29:34;;;;;;;3.93;1.10;;;;;;;25.20;36.44;100613.52;126048;1093;22852;-63
2021/06/08 10:32:07;;;;;;;4.78;1.10;;;;;;;25.18;36.49;100613.32;126239;1093;22813;-62
2021/06/08 10:34:39;;;;;;;5.33;1.10;;;;;;;25.20;36.26;100612.77;126095;1093;22928;-63
2021/06/08 10:37:11;;;;;;;5.40;1.17;;;;;;;25.23;36.47;100618.09;126036;1094;22776;-63
2021/06/08 10:39:42;;;;;;;4.05;1.30;;;;;;;25.28;36.13;100604.95;126067;1093;22845;-62
2021/06/08 10:42:15;;;;;;;3.45;1.00;;;;;;;25.30;36.01;100608.00;126091;1093;23595;-62
2021/06/08 10:44:46;;;;;;;4.55;0.95;;;;;;;25.29;34.13;100609.31;125998;1092;24313;-62
2021/06/08 10:47:24;;;;;;;2.48;1.00;;;;;;;25.31;34.54;100609.50;125805;1092;25910;-62
2021/06/08 10:49:55;;;;;;;4.93;1.00;;;;;;;25.31;34.80;100603.79;125991;1093;22787;-62
2021/06/08 10:52:28;;;;;;;3.60;0.83;;;;;;;25.35;34.03;100607.02;125873;1093;22810;-62
2021/06/08 10:55:10;;;;;;;3.38;1.10;;;;;;;25.39;34.41;100613.11;126112;1093;22845;-63
2021/06/08 10:57:51;;;;;;;5.95;1.30;;;;;;;25.43;34.19;100610.68;125933;1093;22957;-62
2021/06/08 11:00:40;;;;;;;5.08;1.20;;;;;;;25.49;33.41;100614.84;126336;1093;22754;-62
2021/06/08 11:03:13;;;;;;;5.30;1.08;;;;;;;25.49;32.92;100614.09;126013;1093;22784;-62
2021/06/08 11:05:50;;;;;;;3.85;1.00;;;;;;;25.51;33.36;100603.59;126009;1093;22857;-63
2021/06/08 11:08:41;;;;;;;4.05;1.00;;;;;;;25.57;33.30;100609.13;126094;1093;25951;-62
2021/06/08 11:11:13;;;;;;;5.00;1.10;;;;;;;25.57;32.33;100609.86;125957;1093;22757;-63
2021/06/08 11:13:55;;;;;;;2.33;0.90;;;;;;;25.59;32.06;100600.73;125902;1093;27189;-63
2021/06/08 11:16:37;;;;;;;5.63;1.00;;;;;;;25.63;33.05;100601.09;125952;1093;22909;-62
2021/06/08 11:19:08;;;;;;;2.73;1.00;;;;;;;25.67;32.82;100587.17;126025;1093;22777;-62
2021/06/08 11:21:40;;;;;;;4.78;1.10;;;;;;;25.69;32.14;100590.21;125900;1093;22780;-63
2021/06/08 11:24:36;;;;;;;4.23;0.90;;;;;;;25.70;31.97;100597.44;126035;1093;22879;-63
2021/06/08 11:27:09;;;;;;;2.90;0.90;;;;;;;25.75;31.75;100595.71;126037;1093;25838;-63
2021/06/08 11:29:49;;;;;;;3.43;1.10;;;;;;;25.77;32.48;100593.03;126129;1092;26916;-65
2021/06/08 11:32:48;;;;;;;3.13;1.10;;;;;;;25.78;32.47;100586.76;125909;1092;22764;-63
2021/06/08 11:35:22;;;;;;;2.88;0.80;;;;;;;25.81;32.23;100587.68;126166;1093;22857;-64
2021/06/08 11:38:02;;;;;;;4.65;1.08;;;;;;;25.87;32.47;100588.23;125880;1093;22816;-64
2021/06/08 11:40:57;;;;;;;3.03;0.97;;;;;;;25.88;32.22;100581.19;126018;1093;22784;-65
2021/06/08 11:44:01;;;;;;;5.60;1.10;;;;;;;25.89;32.06;100583.45;125860;1093;22787;-62
2021/06/08 11:46:51;;;;;;;4.03;1.03;;;;;;;25.82;32.59;100578.55;126280;1093;22783;-62
2021/06/08 11:49:24;;;;;;;4.03;1.10;;;;;;;25.85;33.15;100580.23;125694;1093;22764;-62
2021/06/08 11:52:12;;;;;;;8.20;1.40;;;;;;;25.92;33.14;100579.45;126000;1093;22791;-63